<?xml version='1.0' encoding='UTF-8'?><gpx version="1.1" creator="JPX - https://github.com/jenetics/jpx" xmlns="http://www.topografix.com/GPX/1/1"><trk><trkseg><trkpt lat="53.76424346443836" lon="11.097959710052592"><ele>51.0</ele><time>2026-04-03T15:43:13.005Z</time></trkpt><trkpt lat="53.764169124681636" lon="11.097950193608426"><ele>51.0</ele><time>2026-04-03T15:43:30.005Z</time></trkpt><trkpt lat="53.76410472864752" lon="11.097935355207069"><ele>51.0</ele><time>2026-04-03T15:45:16.005Z</time></trkpt><trkpt lat="53.76402505170874" lon="11.09792481176218"><ele>51.0</ele><time>2026-04-03T15:45:19.005Z</time></trkpt><trkpt lat="53.763975716154654" lon="11.09800809472707"><ele>51.0</ele><time>2026-04-03T15:45:22.005Z</time></trkpt><trkpt lat="53.76396779603453" lon="11.098119347665737"><ele>51.0</ele><time>2026-04-03T15:45:23.005Z</time></trkpt><trkpt lat="53.763949483300145" lon="11.098284756121478"><ele>51.199999999999996</ele><time>2026-04-03T15:45:25.005Z</time></trkpt><trkpt lat="53.76388158449347" lon="11.098325195450897"><ele>51.4</ele><time>2026-04-03T15:45:28.005Z</time></trkpt><trkpt lat="53.7638351214574" lon="11.098524717624345"><ele>51.6</ele><time>2026-04-03T15:45:31.005Z</time></trkpt><trkpt lat="53.763813776138974" lon="11.098669087609341"><ele>51.8</ele><time>2026-04-03T15:45:32.005Z</time></trkpt><trkpt lat="53.76379480208168" lon="11.098820539433431"><ele>52.0</ele><time>2026-04-03T15:45:33.005Z</time></trkpt><trkpt lat="53.76377962296925" lon="11.098992977543555"><ele>51.75</ele><time>2026-04-03T15:45:34.005Z</time></trkpt><trkpt lat="53.76373091363003" lon="11.099183451556854"><ele>51.5</ele><time>2026-04-03T15:45:35.005Z</time></trkpt><trkpt lat="53.76369780682873" lon="11.099379169929115"><ele>51.25</ele><time>2026-04-03T15:45:36.005Z</time></trkpt><trkpt lat="53.76365728185299" lon="11.099595741409125"><ele>51.0</ele><time>2026-04-03T15:45:37.005Z</time></trkpt><trkpt lat="53.76361241193192" lon="11.099808384221092"><ele>51.25</ele><time>2026-04-03T15:45:38.005Z</time></trkpt><trkpt lat="53.76358016896865" lon="11.1000254300119"><ele>51.5</ele><time>2026-04-03T15:45:39.005Z</time></trkpt><trkpt lat="53.76351637081442" lon="11.100231330357168"><ele>51.75</ele><time>2026-04-03T15:45:40.005Z</time></trkpt><trkpt lat="53.76345049180383" lon="11.100453652177949"><ele>52.0</ele><time>2026-04-03T15:45:41.005Z</time></trkpt><trkpt lat="53.76338036172445" lon="11.100694737961595"><ele>51.666666666666664</ele><time>2026-04-03T15:45:42.005Z</time></trkpt><trkpt lat="53.76329773822215" lon="11.10092650519561"><ele>51.33333333333333</ele><time>2026-04-03T15:45:43.005Z</time></trkpt><trkpt lat="53.763205130424495" lon="11.101150277546147"><ele>51.0</ele><time>2026-04-03T15:45:44.005Z</time></trkpt><trkpt lat="53.76310302424338" lon="11.101383024354126"><ele>50.66666666666667</ele><time>2026-04-03T15:45:45.005Z</time></trkpt><trkpt lat="53.76299060534108" lon="11.101603529432102"><ele>50.333333333333336</ele><time>2026-04-03T15:45:46.005Z</time></trkpt><trkpt lat="53.76288911067757" lon="11.101847803040146"><ele>50.0</ele><time>2026-04-03T15:45:47.005Z</time></trkpt><trkpt lat="53.76276584027889" lon="11.102060439612583"><ele>50.66666666666667</ele><time>2026-04-03T15:45:48.005Z</time></trkpt><trkpt lat="53.7626408248296" lon="11.102282399478895"><ele>51.33333333333333</ele><time>2026-04-03T15:45:49.005Z</time></trkpt><trkpt lat="53.76251482787946" lon="11.102503796135814"><ele>52.0</ele><time>2026-04-03T15:45:50.005Z</time></trkpt><trkpt lat="53.76237997780537" lon="11.102716797711594"><ele>52.0</ele><time>2026-04-03T15:45:51.005Z</time></trkpt><trkpt lat="53.762253392035404" lon="11.102942515337109"><ele>52.0</ele><time>2026-04-03T15:45:52.005Z</time></trkpt><trkpt lat="53.76212532288457" lon="11.103172842684762"><ele>52.0</ele><time>2026-04-03T15:45:53.005Z</time></trkpt><trkpt lat="53.762018670128604" lon="11.10343464970433"><ele>51.666666666666664</ele><time>2026-04-03T15:45:54.005Z</time></trkpt><trkpt lat="53.76188394974785" lon="11.10365911587256"><ele>51.33333333333333</ele><time>2026-04-03T15:45:55.005Z</time></trkpt><trkpt lat="53.76177093190266" lon="11.103900563455744"><ele>51.0</ele><time>2026-04-03T15:45:56.005Z</time></trkpt><trkpt lat="53.76167114289129" lon="11.104147582993358"><ele>51.0</ele><time>2026-04-03T15:45:57.005Z</time></trkpt><trkpt lat="53.761567921486666" lon="11.104399413512608"><ele>51.0</ele><time>2026-04-03T15:45:58.005Z</time></trkpt><trkpt lat="53.76146632354991" lon="11.104654086902498"><ele>51.0</ele><time>2026-04-03T15:45:59.005Z</time></trkpt><trkpt lat="53.76136752462648" lon="11.104914184111568"><ele>50.66666666666667</ele><time>2026-04-03T15:46:00.005Z</time></trkpt><trkpt lat="53.76127594853494" lon="11.10517668433213"><ele>50.333333333333336</ele><time>2026-04-03T15:46:01.005Z</time></trkpt><trkpt lat="53.76121931231153" lon="11.105414994062736"><ele>50.0</ele><time>2026-04-03T15:46:02.005Z</time></trkpt><trkpt lat="53.761147973962885" lon="11.105698772959148"><ele>49.66666666666667</ele><time>2026-04-03T15:46:03.005Z</time></trkpt><trkpt lat="53.761086752339665" lon="11.105968342579695"><ele>49.33333333333333</ele><time>2026-04-03T15:46:04.005Z</time></trkpt><trkpt lat="53.76105143681414" lon="11.106304133335714"><ele>49.0</ele><time>2026-04-03T15:46:05.005Z</time></trkpt><trkpt lat="53.76102221068259" lon="11.106614650028334"><ele>50.0</ele><time>2026-04-03T15:46:06.005Z</time></trkpt><trkpt lat="53.76098325971421" lon="11.106929305540923"><ele>51.0</ele><time>2026-04-03T15:46:07.005Z</time></trkpt><trkpt lat="53.760950095212785" lon="11.107251804352478"><ele>52.0</ele><time>2026-04-03T15:46:08.005Z</time></trkpt><trkpt lat="53.76093178233626" lon="11.10758586957414"><ele>52.0</ele><time>2026-04-03T15:46:09.005Z</time></trkpt><trkpt lat="53.760898186007346" lon="11.107899790321813"><ele>52.0</ele><time>2026-04-03T15:46:10.005Z</time></trkpt><trkpt lat="53.760876746533185" lon="11.108190689990757"><ele>52.0</ele><time>2026-04-03T15:46:11.005Z</time></trkpt><trkpt lat="53.76090554706062" lon="11.108458245618127"><ele>52.0</ele><time>2026-04-03T15:46:12.005Z</time></trkpt><trkpt lat="53.76090145721041" lon="11.108715036034653"><ele>52.0</ele><time>2026-04-03T15:46:13.005Z</time></trkpt><trkpt lat="53.760901899740496" lon="11.10896589123621"><ele>52.0</ele><time>2026-04-03T15:46:14.005Z</time></trkpt><trkpt lat="53.76088595260479" lon="11.109170854348475"><ele>52.0</ele><time>2026-04-03T15:46:15.005Z</time></trkpt><trkpt lat="53.76085938392033" lon="11.10935470474942"><ele>52.5</ele><time>2026-04-03T15:46:16.005Z</time></trkpt><trkpt lat="53.76085377805198" lon="11.109572610142811"><ele>53.0</ele><time>2026-04-03T15:46:17.005Z</time></trkpt><trkpt lat="53.76083228335462" lon="11.109768203007889"><ele>53.5</ele><time>2026-04-03T15:46:18.005Z</time></trkpt><trkpt lat="53.76087244083529" lon="11.10998249947126"><ele>54.0</ele><time>2026-04-03T15:46:19.005Z</time></trkpt><trkpt lat="53.7608682837195" lon="11.110231628445154"><ele>54.0</ele><time>2026-04-03T15:46:20.005Z</time></trkpt><trkpt lat="53.76083961824821" lon="11.110445354455978"><ele>54.0</ele><time>2026-04-03T15:46:21.005Z</time></trkpt><trkpt lat="53.76080955254369" lon="11.11061933189273"><ele>54.0</ele><time>2026-04-03T15:46:22.005Z</time></trkpt><trkpt lat="53.76078597595143" lon="11.110821570874629"><ele>54.0</ele><time>2026-04-03T15:46:23.005Z</time></trkpt><trkpt lat="53.76077546183248" lon="11.111031591882952"><ele>53.75</ele><time>2026-04-03T15:46:24.005Z</time></trkpt><trkpt lat="53.76077682564005" lon="11.11123290125059"><ele>53.5</ele><time>2026-04-03T15:46:25.005Z</time></trkpt><trkpt lat="53.760807341319996" lon="11.111455545965862"><ele>53.25</ele><time>2026-04-03T15:46:26.005Z</time></trkpt><trkpt lat="53.76079718484091" lon="11.111662353187635"><ele>53.0</ele><time>2026-04-03T15:46:27.005Z</time></trkpt><trkpt lat="53.760786973890596" lon="11.111862321059741"><ele>53.0</ele><time>2026-04-03T15:46:28.005Z</time></trkpt><trkpt lat="53.760780588677555" lon="11.112069171178797"><ele>53.0</ele><time>2026-04-03T15:46:29.005Z</time></trkpt><trkpt lat="53.76075832026469" lon="11.112287161952912"><ele>53.0</ele><time>2026-04-03T15:46:30.006Z</time></trkpt><trkpt lat="53.76073630070595" lon="11.112517974484527"><ele>53.0</ele><time>2026-04-03T15:46:31.006Z</time></trkpt><trkpt lat="53.76070406253878" lon="11.112769541197371"><ele>53.0</ele><time>2026-04-03T15:46:32.006Z</time></trkpt><trkpt lat="53.76064441469495" lon="11.112988079285124"><ele>53.0</ele><time>2026-04-03T15:46:33.006Z</time></trkpt><trkpt lat="53.76057545031043" lon="11.113190682107687"><ele>53.0</ele><time>2026-04-03T15:46:34.006Z</time></trkpt><trkpt lat="53.76050049555455" lon="11.113430332788797"><ele>53.0</ele><time>2026-04-03T15:46:35.006Z</time></trkpt><trkpt lat="53.76043208797645" lon="11.113651196911295"><ele>53.0</ele><time>2026-04-03T15:46:36.006Z</time></trkpt><trkpt lat="53.76035923445662" lon="11.113879862526794"><ele>53.0</ele><time>2026-04-03T15:46:37.006Z</time></trkpt><trkpt lat="53.76029953786084" lon="11.11412982350441"><ele>53.0</ele><time>2026-04-03T15:46:38.006Z</time></trkpt><trkpt lat="53.76022291073908" lon="11.114363036605383"><ele>53.333333333333336</ele><time>2026-04-03T15:46:39.006Z</time></trkpt><trkpt lat="53.760154548296114" lon="11.1146041657714"><ele>53.66666666666667</ele><time>2026-04-03T15:46:40.006Z</time></trkpt><trkpt lat="53.76007363195349" lon="11.114831088948478"><ele>54.0</ele><time>2026-04-03T15:46:41.006Z</time></trkpt><trkpt lat="53.76000426570795" lon="11.115069085077767"><ele>54.33333333333333</ele><time>2026-04-03T15:46:42.006Z</time></trkpt><trkpt lat="53.759933593063856" lon="11.115315836272982"><ele>54.666666666666664</ele><time>2026-04-03T15:46:43.006Z</time></trkpt><trkpt lat="53.759860594771624" lon="11.11557197554723"><ele>55.0</ele><time>2026-04-03T15:46:44.006Z</time></trkpt><trkpt lat="53.759790072515536" lon="11.115819426809027"><ele>55.0</ele><time>2026-04-03T15:46:45.006Z</time></trkpt><trkpt lat="53.7597164995338" lon="11.11607758257671"><ele>55.0</ele><time>2026-04-03T15:46:46.006Z</time></trkpt><trkpt lat="53.759641944349575" lon="11.116339184751975"><ele>55.0</ele><time>2026-04-03T15:46:47.006Z</time></trkpt><trkpt lat="53.75956739376527" lon="11.116607315670544"><ele>54.666666666666664</ele><time>2026-04-03T15:46:48.006Z</time></trkpt><trkpt lat="53.75948941323447" lon="11.11688833652682"><ele>54.33333333333333</ele><time>2026-04-03T15:46:49.006Z</time></trkpt><trkpt lat="53.75941256045195" lon="11.117165884266178"><ele>54.0</ele><time>2026-04-03T15:46:50.006Z</time></trkpt><trkpt lat="53.759334459652386" lon="11.117448453690644"><ele>55.33333333333333</ele><time>2026-04-03T15:46:51.006Z</time></trkpt><trkpt lat="53.759253511388195" lon="11.117741325388181"><ele>56.666666666666664</ele><time>2026-04-03T15:46:52.006Z</time></trkpt><trkpt lat="53.75917438196298" lon="11.11802761620511"><ele>58.0</ele><time>2026-04-03T15:46:53.006Z</time></trkpt><trkpt lat="53.759098261710584" lon="11.118296183997085"><ele>58.0</ele><time>2026-04-03T15:46:54.006Z</time></trkpt><trkpt lat="53.759021159662794" lon="11.118562515235517"><ele>58.0</ele><time>2026-04-03T15:46:55.006Z</time></trkpt><trkpt lat="53.75894407927136" lon="11.118833915515056"><ele>58.0</ele><time>2026-04-03T15:46:56.006Z</time></trkpt><trkpt lat="53.75887073199422" lon="11.119095607691419"><ele>58.0</ele><time>2026-04-03T15:46:57.006Z</time></trkpt><trkpt lat="53.758796213189406" lon="11.11936144540766"><ele>58.0</ele><time>2026-04-03T15:46:58.006Z</time></trkpt><trkpt lat="53.75872618939472" lon="11.119633042908735"><ele>58.0</ele><time>2026-04-03T15:46:59.006Z</time></trkpt><trkpt lat="53.75865088347266" lon="11.119907247874686"><ele>58.33333333333333</ele><time>2026-04-03T15:47:00.006Z</time></trkpt><trkpt lat="53.75856943105034" lon="11.120189145004964"><ele>58.66666666666667</ele><time>2026-04-03T15:47:01.006Z</time></trkpt><trkpt lat="53.75848243848346" lon="11.120454269042558"><ele>59.0</ele><time>2026-04-03T15:47:02.006Z</time></trkpt><trkpt lat="53.758398229731995" lon="11.120729003212434"><ele>59.66666666666667</ele><time>2026-04-03T15:47:03.006Z</time></trkpt><trkpt lat="53.75832865492455" lon="11.121010442106751"><ele>60.33333333333333</ele><time>2026-04-03T15:47:04.006Z</time></trkpt><trkpt lat="53.75825130881835" lon="11.121281884340771"><ele>61.0</ele><time>2026-04-03T15:47:05.006Z</time></trkpt><trkpt lat="53.75818538377286" lon="11.12157968542166"><ele>61.33333333333333</ele><time>2026-04-03T15:47:06.006Z</time></trkpt><trkpt lat="53.75810304819593" lon="11.121855798712494"><ele>61.66666666666667</ele><time>2026-04-03T15:47:07.006Z</time></trkpt><trkpt lat="53.75803217753459" lon="11.122121081747082"><ele>62.0</ele><time>2026-04-03T15:47:08.006Z</time></trkpt><trkpt lat="53.757961895792874" lon="11.12239020060759"><ele>62.0</ele><time>2026-04-03T15:47:09.006Z</time></trkpt><trkpt lat="53.75788932614799" lon="11.12267180378296"><ele>62.0</ele><time>2026-04-03T15:47:10.006Z</time></trkpt><trkpt lat="53.757830583261985" lon="11.122958116808453"><ele>62.0</ele><time>2026-04-03T15:47:11.006Z</time></trkpt><trkpt lat="53.75775969048734" lon="11.123238002759544"><ele>62.0</ele><time>2026-04-03T15:47:12.006Z</time></trkpt><trkpt lat="53.757667574535944" lon="11.123513864544993"><ele>62.0</ele><time>2026-04-03T15:47:13.006Z</time></trkpt><trkpt lat="53.75759547598799" lon="11.123788278337791"><ele>62.0</ele><time>2026-04-03T15:47:14.006Z</time></trkpt><trkpt lat="53.75752312226901" lon="11.12406740612058"><ele>62.0</ele><time>2026-04-03T15:47:15.006Z</time></trkpt><trkpt lat="53.75745160449392" lon="11.124343977913245"><ele>62.0</ele><time>2026-04-03T15:47:16.006Z</time></trkpt><trkpt lat="53.75738124999977" lon="11.124616051088195"><ele>62.0</ele><time>2026-04-03T15:47:17.006Z</time></trkpt><trkpt lat="53.757311064436124" lon="11.124887470994755"><ele>62.333333333333336</ele><time>2026-04-03T15:47:18.006Z</time></trkpt><trkpt lat="53.75723945658259" lon="11.125164391136968"><ele>62.66666666666667</ele><time>2026-04-03T15:47:19.006Z</time></trkpt><trkpt lat="53.757169307585876" lon="11.12543566962623"><ele>63.0</ele><time>2026-04-03T15:47:20.006Z</time></trkpt><trkpt lat="53.757106565145484" lon="11.125723696877454"><ele>63.0</ele><time>2026-04-03T15:47:21.006Z</time></trkpt><trkpt lat="53.75702442548606" lon="11.125982112821566"><ele>63.0</ele><time>2026-04-03T15:47:22.006Z</time></trkpt><trkpt lat="53.75695375850966" lon="11.126253313502186"><ele>63.0</ele><time>2026-04-03T15:47:23.006Z</time></trkpt><trkpt lat="53.756880792875776" lon="11.12653281440629"><ele>64.0</ele><time>2026-04-03T15:47:24.006Z</time></trkpt><trkpt lat="53.75680796846335" lon="11.126811723682817"><ele>65.0</ele><time>2026-04-03T15:47:25.006Z</time></trkpt><trkpt lat="53.756745585755105" lon="11.12709260064636"><ele>66.0</ele><time>2026-04-03T15:47:26.006Z</time></trkpt><trkpt lat="53.75666008595295" lon="11.12736812808684"><ele>65.66666666666667</ele><time>2026-04-03T15:47:27.006Z</time></trkpt><trkpt lat="53.75656658064967" lon="11.127634084565653"><ele>65.33333333333334</ele><time>2026-04-03T15:47:28.006Z</time></trkpt><trkpt lat="53.75647446691584" lon="11.127907392611755"><ele>65.0</ele><time>2026-04-03T15:47:29.006Z</time></trkpt><trkpt lat="53.756411862176016" lon="11.128192057105533"><ele>64.66666666666667</ele><time>2026-04-03T15:47:30.006Z</time></trkpt><trkpt lat="53.75635788507914" lon="11.128490851758002"><ele>64.33333333333333</ele><time>2026-04-03T15:47:31.006Z</time></trkpt><trkpt lat="53.75626909923744" lon="11.128776860438478"><ele>64.0</ele><time>2026-04-03T15:47:32.006Z</time></trkpt><trkpt lat="53.75619115249897" lon="11.129085676482056"><ele>64.0</ele><time>2026-04-03T15:47:33.006Z</time></trkpt><trkpt lat="53.75610824335945" lon="11.129382655927945"><ele>64.0</ele><time>2026-04-03T15:47:34.006Z</time></trkpt><trkpt lat="53.756033605216594" lon="11.129661656822842"><ele>64.0</ele><time>2026-04-03T15:47:35.006Z</time></trkpt><trkpt lat="53.755962287274045" lon="11.129957289677579"><ele>64.0</ele><time>2026-04-03T15:47:36.006Z</time></trkpt><trkpt lat="53.75589817241231" lon="11.130233199072407"><ele>64.0</ele><time>2026-04-03T15:47:37.006Z</time></trkpt><trkpt lat="53.75583255611769" lon="11.130515194136372"><ele>64.0</ele><time>2026-04-03T15:47:38.006Z</time></trkpt><trkpt lat="53.75576376387309" lon="11.130797259026474"><ele>64.0</ele><time>2026-04-03T15:47:39.006Z</time></trkpt><trkpt lat="53.75569962764802" lon="11.131072700814865"><ele>64.0</ele><time>2026-04-03T15:47:40.006Z</time></trkpt><trkpt lat="53.75561395820874" lon="11.131338341774828"><ele>64.0</ele><time>2026-04-03T15:47:41.006Z</time></trkpt><trkpt lat="53.7555242434911" lon="11.131576811416325"><ele>64.33333333333333</ele><time>2026-04-03T15:47:42.006Z</time></trkpt><trkpt lat="53.75544752759633" lon="11.131876249907533"><ele>64.66666666666667</ele><time>2026-04-03T15:47:43.006Z</time></trkpt><trkpt lat="53.75536147995016" lon="11.132151734592277"><ele>65.0</ele><time>2026-04-03T15:47:44.006Z</time></trkpt><trkpt lat="53.755291650520526" lon="11.132431355540021"><ele>65.0</ele><time>2026-04-03T15:47:45.006Z</time></trkpt><trkpt lat="53.75523690837716" lon="11.13271668272956"><ele>65.0</ele><time>2026-04-03T15:47:46.006Z</time></trkpt><trkpt lat="53.75517366859529" lon="11.132993170469101"><ele>65.0</ele><time>2026-04-03T15:47:47.006Z</time></trkpt><trkpt lat="53.755097075809125" lon="11.133275732946345"><ele>65.33333333333334</ele><time>2026-04-03T15:47:48.006Z</time></trkpt><trkpt lat="53.755020763603184" lon="11.133557466744021"><ele>65.66666666666667</ele><time>2026-04-03T15:47:49.006Z</time></trkpt><trkpt lat="53.75495447374223" lon="11.133846284583601"><ele>66.0</ele><time>2026-04-03T15:47:50.006Z</time></trkpt><trkpt lat="53.75488669499769" lon="11.134136878995443"><ele>66.0</ele><time>2026-04-03T15:47:51.006Z</time></trkpt><trkpt lat="53.75480652298354" lon="11.134398666185934"><ele>66.0</ele><time>2026-04-03T15:47:52.006Z</time></trkpt><trkpt lat="53.75471087366342" lon="11.134650586344652"><ele>66.0</ele><time>2026-04-03T15:47:53.006Z</time></trkpt><trkpt lat="53.754596681107145" lon="11.13491142467121"><ele>66.0</ele><time>2026-04-03T15:47:54.006Z</time></trkpt><trkpt lat="53.75446777365769" lon="11.13515493240792"><ele>66.0</ele><time>2026-04-03T15:47:55.006Z</time></trkpt><trkpt lat="53.75433145009627" lon="11.13538899898706"><ele>66.0</ele><time>2026-04-03T15:47:56.006Z</time></trkpt><trkpt lat="53.75420771082874" lon="11.135636625963894"><ele>66.0</ele><time>2026-04-03T15:47:57.006Z</time></trkpt><trkpt lat="53.75408409306484" lon="11.135879065915022"><ele>66.0</ele><time>2026-04-03T15:47:58.006Z</time></trkpt><trkpt lat="53.75394800844588" lon="11.13610714749323"><ele>66.0</ele><time>2026-04-03T15:47:59.006Z</time></trkpt><trkpt lat="53.753818642348506" lon="11.136337118028234"><ele>65.33333333333333</ele><time>2026-04-03T15:48:00.006Z</time></trkpt><trkpt lat="53.75367925719648" lon="11.136586095113536"><ele>64.66666666666666</ele><time>2026-04-03T15:48:01.006Z</time></trkpt><trkpt lat="53.753560265119106" lon="11.136828865003277"><ele>64.0</ele><time>2026-04-03T15:48:02.006Z</time></trkpt><trkpt lat="53.75345610700521" lon="11.137074261910247"><ele>63.666666666666664</ele><time>2026-04-03T15:48:03.006Z</time></trkpt><trkpt lat="53.75331740042157" lon="11.137300452306649"><ele>63.33333333333333</ele><time>2026-04-03T15:48:04.006Z</time></trkpt><trkpt lat="53.75319708854333" lon="11.137549052994332"><ele>63.0</ele><time>2026-04-03T15:48:05.006Z</time></trkpt><trkpt lat="53.7530683386258" lon="11.13775642743808"><ele>63.0</ele><time>2026-04-03T15:48:06.006Z</time></trkpt><trkpt lat="53.752949653546125" lon="11.13797986793191"><ele>63.0</ele><time>2026-04-03T15:48:07.006Z</time></trkpt><trkpt lat="53.75282929197222" lon="11.138206464611795"><ele>63.0</ele><time>2026-04-03T15:48:08.006Z</time></trkpt><trkpt lat="53.75271123069186" lon="11.13842752665311"><ele>62.66666666666667</ele><time>2026-04-03T15:48:09.006Z</time></trkpt><trkpt lat="53.75259127084948" lon="11.138651685593983"><ele>62.333333333333336</ele><time>2026-04-03T15:48:10.006Z</time></trkpt><trkpt lat="53.75246100448066" lon="11.138895103322383"><ele>62.0</ele><time>2026-04-03T15:48:11.006Z</time></trkpt><trkpt lat="53.75233517372891" lon="11.139130232807934"><ele>61.333333333333336</ele><time>2026-04-03T15:48:12.006Z</time></trkpt><trkpt lat="53.75219807327188" lon="11.139384496035472"><ele>60.66666666666667</ele><time>2026-04-03T15:48:13.006Z</time></trkpt><trkpt lat="53.752069809193685" lon="11.13962097782692"><ele>60.0</ele><time>2026-04-03T15:48:14.006Z</time></trkpt><trkpt lat="53.751943384658354" lon="11.13985406775496"><ele>59.33333333333333</ele><time>2026-04-03T15:48:15.006Z</time></trkpt><trkpt lat="53.75181601331297" lon="11.140088903487843"><ele>58.666666666666664</ele><time>2026-04-03T15:48:16.006Z</time></trkpt><trkpt lat="53.75168856483695" lon="11.140333003390907"><ele>58.0</ele><time>2026-04-03T15:48:17.006Z</time></trkpt><trkpt lat="53.7515797947476" lon="11.140539388215968"><ele>57.666666666666664</ele><time>2026-04-03T15:48:18.006Z</time></trkpt><trkpt lat="53.75146379952657" lon="11.1407584220615"><ele>57.33333333333333</ele><time>2026-04-03T15:48:19.006Z</time></trkpt><trkpt lat="53.75133342535357" lon="11.141004834207093"><ele>57.0</ele><time>2026-04-03T15:48:20.006Z</time></trkpt><trkpt lat="53.75119604204299" lon="11.141249111098018"><ele>57.0</ele><time>2026-04-03T15:48:21.006Z</time></trkpt><trkpt lat="53.75104334838223" lon="11.141468007637354"><ele>57.0</ele><time>2026-04-03T15:48:22.006Z</time></trkpt><trkpt lat="53.75089961077399" lon="11.141628202579021"><ele>57.0</ele><time>2026-04-03T15:48:23.006Z</time></trkpt><trkpt lat="53.75075958758379" lon="11.14177291859008"><ele>57.0</ele><time>2026-04-03T15:48:24.006Z</time></trkpt><trkpt lat="53.75060099902161" lon="11.141935134008428"><ele>57.0</ele><time>2026-04-03T15:48:25.006Z</time></trkpt><trkpt lat="53.75044603843129" lon="11.14209276775417"><ele>57.0</ele><time>2026-04-03T15:48:26.006Z</time></trkpt><trkpt lat="53.75028531968555" lon="11.14225619673369"><ele>57.66666666666667</ele><time>2026-04-03T15:48:27.006Z</time></trkpt><trkpt lat="53.75012656140038" lon="11.14242161583638"><ele>58.333333333333336</ele><time>2026-04-03T15:48:28.006Z</time></trkpt><trkpt lat="53.749980606274924" lon="11.142566700438673"><ele>59.0</ele><time>2026-04-03T15:48:29.006Z</time></trkpt><trkpt lat="53.749834677254285" lon="11.142711190184386"><ele>59.0</ele><time>2026-04-03T15:48:30.006Z</time></trkpt><trkpt lat="53.74967826956806" lon="11.142865498044637"><ele>59.0</ele><time>2026-04-03T15:48:31.006Z</time></trkpt><trkpt lat="53.74952030087705" lon="11.1430215094952"><ele>59.0</ele><time>2026-04-03T15:48:32.006Z</time></trkpt><trkpt lat="53.74936844418797" lon="11.143197218419203"><ele>59.0</ele><time>2026-04-03T15:48:33.006Z</time></trkpt><trkpt lat="53.74922207945028" lon="11.143390721076262"><ele>59.0</ele><time>2026-04-03T15:48:34.006Z</time></trkpt><trkpt lat="53.749097531046836" lon="11.143565320195046"><ele>59.0</ele><time>2026-04-03T15:48:35.006Z</time></trkpt><trkpt lat="53.74897635233493" lon="11.143746581699297"><ele>59.0</ele><time>2026-04-03T15:48:36.006Z</time></trkpt><trkpt lat="53.74885055004732" lon="11.143941286092597"><ele>59.0</ele><time>2026-04-03T15:48:37.006Z</time></trkpt><trkpt lat="53.7487198277116" lon="11.144144557714771"><ele>59.0</ele><time>2026-04-03T15:48:38.006Z</time></trkpt><trkpt lat="53.74858542806688" lon="11.144359673472584"><ele>59.0</ele><time>2026-04-03T15:48:39.006Z</time></trkpt><trkpt lat="53.74845602589544" lon="11.144583465761375"><ele>59.0</ele><time>2026-04-03T15:48:40.006Z</time></trkpt><trkpt lat="53.74834516423096" lon="11.144827561289143"><ele>59.0</ele><time>2026-04-03T15:48:41.006Z</time></trkpt><trkpt lat="53.74822348970863" lon="11.145058245003776"><ele>59.0</ele><time>2026-04-03T15:48:42.006Z</time></trkpt><trkpt lat="53.74812039712728" lon="11.145315275288311"><ele>59.0</ele><time>2026-04-03T15:48:43.006Z</time></trkpt><trkpt lat="53.74803192961721" lon="11.145549926644364"><ele>59.0</ele><time>2026-04-03T15:48:44.006Z</time></trkpt><trkpt lat="53.747949515145315" lon="11.145793936978125"><ele>59.333333333333336</ele><time>2026-04-03T15:48:45.006Z</time></trkpt><trkpt lat="53.7478514943392" lon="11.146087890974881"><ele>59.66666666666667</ele><time>2026-04-03T15:48:46.006Z</time></trkpt><trkpt lat="53.74775729430217" lon="11.146378031430245"><ele>60.0</ele><time>2026-04-03T15:48:47.006Z</time></trkpt><trkpt lat="53.7476687695154" lon="11.146650100246458"><ele>60.33333333333333</ele><time>2026-04-03T15:48:48.006Z</time></trkpt><trkpt lat="53.747585847910486" lon="11.146925019299168"><ele>60.666666666666664</ele><time>2026-04-03T15:48:49.006Z</time></trkpt><trkpt lat="53.74750875290575" lon="11.147201288686635"><ele>61.0</ele><time>2026-04-03T15:48:50.006Z</time></trkpt><trkpt lat="53.74743873033277" lon="11.147483704674054"><ele>61.25</ele><time>2026-04-03T15:48:51.006Z</time></trkpt><trkpt lat="53.747376228678334" lon="11.147727485543578"><ele>61.5</ele><time>2026-04-03T15:48:52.006Z</time></trkpt><trkpt lat="53.747287613608876" lon="11.14791265636588"><ele>61.75</ele><time>2026-04-03T15:48:53.006Z</time></trkpt><trkpt lat="53.74719682374343" lon="11.148060101030657"><ele>62.0</ele><time>2026-04-03T15:48:54.006Z</time></trkpt><trkpt lat="53.74713260733579" lon="11.148242079932388"><ele>62.0</ele><time>2026-04-03T15:48:55.006Z</time></trkpt><trkpt lat="53.7470783559006" lon="11.148356746228915"><ele>62.00000000000001</ele><time>2026-04-03T15:48:56.006Z</time></trkpt><trkpt lat="53.74702044001716" lon="11.14842480480113"><ele>62.0</ele><time>2026-04-03T15:48:57.006Z</time></trkpt><trkpt lat="53.74697267625432" lon="11.148509121790863"><ele>62.0</ele><time>2026-04-03T15:48:58.006Z</time></trkpt><trkpt lat="53.74693078322691" lon="11.14859057422794"><ele>62.00000000000001</ele><time>2026-04-03T15:48:59.006Z</time></trkpt><trkpt lat="53.74688845710849" lon="11.14868831898037"><ele>62.0</ele><time>2026-04-03T15:49:00.006Z</time></trkpt><trkpt lat="53.74685439167703" lon="11.148780369084271"><ele>62.0</ele><time>2026-04-03T15:49:01.006Z</time></trkpt><trkpt lat="53.74680427436874" lon="11.148857915575341"><ele>62.0</ele><time>2026-04-03T15:49:02.006Z</time></trkpt><trkpt lat="53.74675575292874" lon="11.148976513933723"><ele>62.0</ele><time>2026-04-03T15:49:03.006Z</time></trkpt><trkpt lat="53.74670121775353" lon="11.14907034802268"><ele>62.0</ele><time>2026-04-03T15:49:04.006Z</time></trkpt><trkpt lat="53.74663041911796" lon="11.149210296656777"><ele>62.0</ele><time>2026-04-03T15:49:05.006Z</time></trkpt><trkpt lat="53.74656757753766" lon="11.149344617558999"><ele>62.0</ele><time>2026-04-03T15:49:06.006Z</time></trkpt><trkpt lat="53.74651266522999" lon="11.149460318329309"><ele>62.00000000000001</ele><time>2026-04-03T15:49:07.006Z</time></trkpt><trkpt lat="53.74645411086936" lon="11.149577721525018"><ele>62.0</ele><time>2026-04-03T15:49:08.006Z</time></trkpt><trkpt lat="53.74639149831713" lon="11.149701110916274"><ele>62.0</ele><time>2026-04-03T15:49:09.006Z</time></trkpt><trkpt lat="53.74634742144811" lon="11.1498115241421"><ele>62.0</ele><time>2026-04-03T15:49:10.006Z</time></trkpt><trkpt lat="53.746282357529246" lon="11.149916177351106"><ele>62.00000000000001</ele><time>2026-04-03T15:49:11.006Z</time></trkpt><trkpt lat="53.74622484391453" lon="11.150033519126811"><ele>62.0</ele><time>2026-04-03T15:49:12.006Z</time></trkpt><trkpt lat="53.74616625719384" lon="11.150158028514374"><ele>62.0</ele><time>2026-04-03T15:49:13.006Z</time></trkpt><trkpt lat="53.74611038739313" lon="11.150280075800222"><ele>62.0</ele><time>2026-04-03T15:49:14.006Z</time></trkpt><trkpt lat="53.7460501686304" lon="11.150414470887087"><ele>62.0</ele><time>2026-04-03T15:49:15.006Z</time></trkpt><trkpt lat="53.745988960137495" lon="11.150551074869622"><ele>62.0</ele><time>2026-04-03T15:49:16.006Z</time></trkpt><trkpt lat="53.74592270470547" lon="11.150692372363332"><ele>62.0</ele><time>2026-04-03T15:49:17.006Z</time></trkpt><trkpt lat="53.7458531863807" lon="11.150838752140244"><ele>61.75</ele><time>2026-04-03T15:49:18.006Z</time></trkpt><trkpt lat="53.745787784108806" lon="11.150978594108121"><ele>61.5</ele><time>2026-04-03T15:49:19.006Z</time></trkpt><trkpt lat="53.74570949623635" lon="11.151167684936944"><ele>61.25</ele><time>2026-04-03T15:49:20.006Z</time></trkpt><trkpt lat="53.745632035603535" lon="11.151378259739634"><ele>61.0</ele><time>2026-04-03T15:49:21.006Z</time></trkpt><trkpt lat="53.7455649799253" lon="11.151575832598265"><ele>61.0</ele><time>2026-04-03T15:49:22.006Z</time></trkpt><trkpt lat="53.7455036364655" lon="11.151770356867079"><ele>61.0</ele><time>2026-04-03T15:49:23.006Z</time></trkpt><trkpt lat="53.745446532147646" lon="11.151965572161455"><ele>61.0</ele><time>2026-04-03T15:49:24.006Z</time></trkpt><trkpt lat="53.745389316415924" lon="11.152173112963283"><ele>61.0</ele><time>2026-04-03T15:49:25.006Z</time></trkpt><trkpt lat="53.7453419048805" lon="11.152368881983325"><ele>60.75</ele><time>2026-04-03T15:49:26.006Z</time></trkpt><trkpt lat="53.74529510216093" lon="11.152568325103081"><ele>60.5</ele><time>2026-04-03T15:49:27.006Z</time></trkpt><trkpt lat="53.74526189264026" lon="11.152761175074223"><ele>60.25</ele><time>2026-04-03T15:49:28.006Z</time></trkpt><trkpt lat="53.74521652912124" lon="11.152958803115938"><ele>60.0</ele><time>2026-04-03T15:49:29.006Z</time></trkpt><trkpt lat="53.74516836581748" lon="11.153153660941951"><ele>60.0</ele><time>2026-04-03T15:49:30.006Z</time></trkpt><trkpt lat="53.745123944007005" lon="11.153343731252303"><ele>60.0</ele><time>2026-04-03T15:49:31.006Z</time></trkpt><trkpt lat="53.745073347515145" lon="11.153524647114656"><ele>60.0</ele><time>2026-04-03T15:49:32.006Z</time></trkpt><trkpt lat="53.74501648261007" lon="11.153712686221974"><ele>60.0</ele><time>2026-04-03T15:49:33.006Z</time></trkpt><trkpt lat="53.744975513661224" lon="11.153884245456062"><ele>60.0</ele><time>2026-04-03T15:49:34.006Z</time></trkpt><trkpt lat="53.74492040888916" lon="11.154021250266721"><ele>60.0</ele><time>2026-04-03T15:49:35.006Z</time></trkpt><trkpt lat="53.74487519449128" lon="11.154165683345276"><ele>60.0</ele><time>2026-04-03T15:49:36.006Z</time></trkpt><trkpt lat="53.74482903180062" lon="11.154301610020939"><ele>60.0</ele><time>2026-04-03T15:49:37.006Z</time></trkpt><trkpt lat="53.74479085014987" lon="11.15441178997665"><ele>60.0</ele><time>2026-04-03T15:49:38.006Z</time></trkpt><trkpt lat="53.74473603123799" lon="11.15456372420853"><ele>60.0</ele><time>2026-04-03T15:49:40.006Z</time></trkpt><trkpt lat="53.74469524913954" lon="11.154673382524699"><ele>60.0</ele><time>2026-04-03T15:49:43.006Z</time></trkpt><trkpt lat="53.74466781744886" lon="11.15478395550108"><ele>60.0</ele><time>2026-04-03T15:49:47.006Z</time></trkpt><trkpt lat="53.74461909258777" lon="11.154880807160184"><ele>60.0</ele><time>2026-04-03T15:49:51.006Z</time></trkpt><trkpt lat="53.744584781828095" lon="11.154976857484543"><ele>60.0</ele><time>2026-04-03T15:49:53.006Z</time></trkpt><trkpt lat="53.74454651784885" lon="11.155085328681764"><ele>60.0</ele><time>2026-04-03T15:50:03.007Z</time></trkpt><trkpt lat="53.7445046078203" lon="11.155204135824324"><ele>60.0</ele><time>2026-04-03T15:50:48.001Z</time></trkpt><trkpt lat="53.74446973849966" lon="11.155302983704136"><ele>60.0</ele><time>2026-04-03T15:50:51.001Z</time></trkpt><trkpt lat="53.74444826839319" lon="11.155412991690609"><ele>60.0</ele><time>2026-04-03T15:51:03Z</time></trkpt><trkpt lat="53.744409214317855" lon="11.155510657758235"><ele>60.0</ele><time>2026-04-03T15:51:13Z</time></trkpt><trkpt lat="53.744339867842285" lon="11.155656760530919"><ele>60.0</ele><time>2026-04-03T15:51:17Z</time></trkpt><trkpt lat="53.74430373488816" lon="11.155753131905175"><ele>60.0</ele><time>2026-04-03T15:51:18Z</time></trkpt><trkpt lat="53.744259856651375" lon="11.155869315063516"><ele>60.0</ele><time>2026-04-03T15:51:19Z</time></trkpt><trkpt lat="53.74421751400861" lon="11.156025887963157"><ele>59.75</ele><time>2026-04-03T15:51:20Z</time></trkpt><trkpt lat="53.74415491276294" lon="11.156187632747391"><ele>59.5</ele><time>2026-04-03T15:51:21Z</time></trkpt><trkpt lat="53.74407543207017" lon="11.156342041716304"><ele>59.25</ele><time>2026-04-03T15:51:22Z</time></trkpt><trkpt lat="53.744004771923194" lon="11.156521461315641"><ele>59.0</ele><time>2026-04-03T15:51:23Z</time></trkpt><trkpt lat="53.74394301128452" lon="11.156719980082539"><ele>59.0</ele><time>2026-04-03T15:51:24Z</time></trkpt><trkpt lat="53.74385261250095" lon="11.15690373431871"><ele>59.0</ele><time>2026-04-03T15:51:25Z</time></trkpt><trkpt lat="53.743769511979146" lon="11.157103935299553"><ele>59.0</ele><time>2026-04-03T15:51:26Z</time></trkpt><trkpt lat="53.74369059383242" lon="11.15731266466311"><ele>59.0</ele><time>2026-04-03T15:51:27Z</time></trkpt><trkpt lat="53.743599842965615" lon="11.157525658261154"><ele>58.66666666666667</ele><time>2026-04-03T15:51:28Z</time></trkpt><trkpt lat="53.74350485649972" lon="11.157740159438541"><ele>58.33333333333333</ele><time>2026-04-03T15:51:29Z</time></trkpt><trkpt lat="53.743391309253184" lon="11.157931527667683"><ele>58.0</ele><time>2026-04-03T15:51:30Z</time></trkpt><trkpt lat="53.743306089050535" lon="11.158160058493056"><ele>58.666666666666664</ele><time>2026-04-03T15:51:31Z</time></trkpt><trkpt lat="53.74321437196021" lon="11.158369008421019"><ele>59.33333333333333</ele><time>2026-04-03T15:51:32Z</time></trkpt><trkpt lat="53.74310053090634" lon="11.158567611330822"><ele>60.0</ele><time>2026-04-03T15:51:33Z</time></trkpt><trkpt lat="53.74299461015684" lon="11.158790593076212"><ele>60.0</ele><time>2026-04-03T15:51:34Z</time></trkpt><trkpt lat="53.7428987825138" lon="11.158990485673495"><ele>60.0</ele><time>2026-04-03T15:51:35Z</time></trkpt><trkpt lat="53.742810821579816" lon="11.159168183393698"><ele>60.0</ele><time>2026-04-03T15:51:36Z</time></trkpt><trkpt lat="53.74272626756283" lon="11.159327148691151"><ele>60.0</ele><time>2026-04-03T15:51:37Z</time></trkpt><trkpt lat="53.74263854086194" lon="11.159487071586302"><ele>59.666666666666664</ele><time>2026-04-03T15:51:38Z</time></trkpt><trkpt lat="53.74256653183393" lon="11.159616822168388"><ele>59.33333333333333</ele><time>2026-04-03T15:51:39Z</time></trkpt><trkpt lat="53.742513490189765" lon="11.159709276653036"><ele>59.0</ele><time>2026-04-03T15:51:40Z</time></trkpt><trkpt lat="53.74246883390179" lon="11.159784558409195"><ele>58.666666666666664</ele><time>2026-04-03T15:51:41Z</time></trkpt><trkpt lat="53.742423284166996" lon="11.159861346416436"><ele>58.33333333333333</ele><time>2026-04-03T15:51:42Z</time></trkpt><trkpt lat="53.74237422374431" lon="11.159975661056452"><ele>58.0</ele><time>2026-04-03T15:51:44Z</time></trkpt><trkpt lat="53.74230886637317" lon="11.16005423260738"><ele>58.0</ele><time>2026-04-03T15:51:51Z</time></trkpt><trkpt lat="53.742274550557426" lon="11.16014795547519"><ele>58.0</ele><time>2026-04-03T15:51:55Z</time></trkpt><trkpt lat="53.742207572447434" lon="11.16023444997576"><ele>58.0</ele><time>2026-04-03T15:52:01Z</time></trkpt><trkpt lat="53.7422948391929" lon="11.160021248553155"><ele>58.0</ele><time>2026-04-03T15:52:08Z</time></trkpt><trkpt lat="53.742371232649546" lon="11.159858018862556"><ele>58.0</ele><time>2026-04-03T15:52:09Z</time></trkpt><trkpt lat="53.74244840435986" lon="11.159737453208677"><ele>58.0</ele><time>2026-04-03T15:52:10Z</time></trkpt><trkpt lat="53.742538254666165" lon="11.159614839464687"><ele>58.0</ele><time>2026-04-03T15:52:11Z</time></trkpt><trkpt lat="53.7426775959145" lon="11.159498441559824"><ele>58.0</ele><time>2026-04-03T15:52:12Z</time></trkpt><trkpt lat="53.74279128023613" lon="11.159290562215707"><ele>58.0</ele><time>2026-04-03T15:52:13Z</time></trkpt><trkpt lat="53.7428766319392" lon="11.159103567228502"><ele>58.5</ele><time>2026-04-03T15:52:14Z</time></trkpt><trkpt lat="53.742971934612065" lon="11.158903859200452"><ele>59.0</ele><time>2026-04-03T15:52:15Z</time></trkpt><trkpt lat="53.7430579342149" lon="11.158716070582445"><ele>59.5</ele><time>2026-04-03T15:52:16Z</time></trkpt><trkpt lat="53.743147559328094" lon="11.15851792937172"><ele>60.0</ele><time>2026-04-03T15:52:17Z</time></trkpt><trkpt lat="53.74325001478426" lon="11.158339965702838"><ele>59.33333333333333</ele><time>2026-04-03T15:52:18Z</time></trkpt><trkpt lat="53.74333530941132" lon="11.158150004751674"><ele>58.666666666666664</ele><time>2026-04-03T15:52:19Z</time></trkpt><trkpt lat="53.74341681480951" lon="11.157931740265596"><ele>58.0</ele><time>2026-04-03T15:52:20Z</time></trkpt><trkpt lat="53.74353093205727" lon="11.157731923276362"><ele>58.33333333333333</ele><time>2026-04-03T15:52:21Z</time></trkpt><trkpt lat="53.74364400779055" lon="11.15748730878086"><ele>58.66666666666667</ele><time>2026-04-03T15:52:22Z</time></trkpt><trkpt lat="53.74374732656558" lon="11.15725148602552"><ele>59.0</ele><time>2026-04-03T15:52:23Z</time></trkpt><trkpt lat="53.74384239340862" lon="11.157027802513028"><ele>59.0</ele><time>2026-04-03T15:52:24Z</time></trkpt><trkpt lat="53.743932235103124" lon="11.156805539367063"><ele>59.0</ele><time>2026-04-03T15:52:25Z</time></trkpt><trkpt lat="53.74401370877265" lon="11.156600111008308"><ele>59.0</ele><time>2026-04-03T15:52:26Z</time></trkpt><trkpt lat="53.744092246928986" lon="11.15640068694853"><ele>59.0</ele><time>2026-04-03T15:52:27Z</time></trkpt><trkpt lat="53.74416741379933" lon="11.156209823257353"><ele>59.0</ele><time>2026-04-03T15:52:28Z</time></trkpt><trkpt lat="53.74423512833578" lon="11.156036414898056"><ele>59.0</ele><time>2026-04-03T15:52:29Z</time></trkpt><trkpt lat="53.74430294246685" lon="11.155860156207476"><ele>59.0</ele><time>2026-04-03T15:52:30Z</time></trkpt><trkpt lat="53.74436130343536" lon="11.155704499706987"><ele>59.0</ele><time>2026-04-03T15:52:31Z</time></trkpt><trkpt lat="53.74441664052599" lon="11.155555074348914"><ele>59.00000000000001</ele><time>2026-04-03T15:52:32Z</time></trkpt><trkpt lat="53.74445922090834" lon="11.155439550653123"><ele>59.0</ele><time>2026-04-03T15:52:33Z</time></trkpt><trkpt lat="53.744483600976146" lon="11.155319380581513"><ele>59.0</ele><time>2026-04-03T15:52:34Z</time></trkpt><trkpt lat="53.744531122193166" lon="11.155238634634436"><ele>59.0</ele><time>2026-04-03T15:52:35Z</time></trkpt><trkpt lat="53.74457991448454" lon="11.155063111337805"><ele>59.00000000000001</ele><time>2026-04-03T15:52:37Z</time></trkpt><trkpt lat="53.74461648974599" lon="11.154967325467961"><ele>59.0</ele><time>2026-04-03T15:52:38Z</time></trkpt><trkpt lat="53.744651554451906" lon="11.154865823685189"><ele>59.00000000000001</ele><time>2026-04-03T15:52:39Z</time></trkpt><trkpt lat="53.74469341213463" lon="11.154747434990831"><ele>59.0</ele><time>2026-04-03T15:52:40Z</time></trkpt><trkpt lat="53.74474216934584" lon="11.154652742087592"><ele>59.0</ele><time>2026-04-03T15:52:41Z</time></trkpt><trkpt lat="53.74478082808518" lon="11.154547713782087"><ele>59.0</ele><time>2026-04-03T15:52:42Z</time></trkpt><trkpt lat="53.74482002079726" lon="11.154426314150607"><ele>59.00000000000001</ele><time>2026-04-03T15:52:43Z</time></trkpt><trkpt lat="53.744866597462305" lon="11.154283841572179"><ele>59.0</ele><time>2026-04-03T15:52:44Z</time></trkpt><trkpt lat="53.74491165582056" lon="11.154169544802112"><ele>59.2</ele><time>2026-04-03T15:52:45Z</time></trkpt><trkpt lat="53.7449534669265" lon="11.154035087090039"><ele>59.400000000000006</ele><time>2026-04-03T15:52:46Z</time></trkpt><trkpt lat="53.7449964651098" lon="11.15387724593522"><ele>59.6</ele><time>2026-04-03T15:52:47Z</time></trkpt><trkpt lat="53.74504487108749" lon="11.15371704190287"><ele>59.8</ele><time>2026-04-03T15:52:48Z</time></trkpt><trkpt lat="53.745076590062446" lon="11.153571448518942"><ele>60.0</ele><time>2026-04-03T15:52:49Z</time></trkpt><trkpt lat="53.74511799541762" lon="11.153423832601643"><ele>60.0</ele><time>2026-04-03T15:52:50Z</time></trkpt><trkpt lat="53.745150810558805" lon="11.153294535665005"><ele>60.0</ele><time>2026-04-03T15:52:51Z</time></trkpt><trkpt lat="53.74518939513891" lon="11.153154753882692"><ele>60.0</ele><time>2026-04-03T15:52:52Z</time></trkpt><trkpt lat="53.74522260667885" lon="11.153021938326868"><ele>60.0</ele><time>2026-04-03T15:52:52.999Z</time></trkpt><trkpt lat="53.74525664626918" lon="11.152881803296642"><ele>60.0</ele><time>2026-04-03T15:52:53.999Z</time></trkpt><trkpt lat="53.745285128318635" lon="11.152761561785285"><ele>60.0</ele><time>2026-04-03T15:52:54.999Z</time></trkpt><trkpt lat="53.74531070863663" lon="11.15259782210006"><ele>59.8</ele><time>2026-04-03T15:52:55.999Z</time></trkpt><trkpt lat="53.74535483408129" lon="11.152456451680399"><ele>59.6</ele><time>2026-04-03T15:52:56.999Z</time></trkpt><trkpt lat="53.74538965960188" lon="11.15229057509345"><ele>59.400000000000006</ele><time>2026-04-03T15:52:57.999Z</time></trkpt><trkpt lat="53.74545383443332" lon="11.152130921257818"><ele>59.2</ele><time>2026-04-03T15:52:58.999Z</time></trkpt><trkpt lat="53.74548389939477" lon="11.151992184471366"><ele>59.0</ele><time>2026-04-03T15:52:59.999Z</time></trkpt><trkpt lat="53.74549960508298" lon="11.151862665959976"><ele>59.400000000000006</ele><time>2026-04-03T15:53:00.999Z</time></trkpt><trkpt lat="53.745556447859364" lon="11.151718564986945"><ele>59.800000000000004</ele><time>2026-04-03T15:53:01.999Z</time></trkpt><trkpt lat="53.74560049918115" lon="11.15158322323613"><ele>60.199999999999996</ele><time>2026-04-03T15:53:02.999Z</time></trkpt><trkpt lat="53.745627073347364" lon="11.151453049764093"><ele>60.599999999999994</ele><time>2026-04-03T15:53:03.999Z</time></trkpt><trkpt lat="53.74568207973007" lon="11.151324486190354"><ele>61.0</ele><time>2026-04-03T15:53:04.999Z</time></trkpt><trkpt lat="53.745741150475126" lon="11.151191313932204"><ele>61.0</ele><time>2026-04-03T15:53:05.999Z</time></trkpt><trkpt lat="53.74579283284185" lon="11.151054532048624"><ele>60.99999999999999</ele><time>2026-04-03T15:53:06.999Z</time></trkpt><trkpt lat="53.74585232307468" lon="11.150929878058943"><ele>60.99999999999999</ele><time>2026-04-03T15:53:07.999Z</time></trkpt><trkpt lat="53.74591678793908" lon="11.150774045468449"><ele>61.0</ele><time>2026-04-03T15:53:08.999Z</time></trkpt><trkpt lat="53.7459971271688" lon="11.150621229466733"><ele>61.0</ele><time>2026-04-03T15:53:09.999Z</time></trkpt><trkpt lat="53.74606359800336" lon="11.150473199986473"><ele>61.0</ele><time>2026-04-03T15:53:10.999Z</time></trkpt><trkpt lat="53.746147141381535" lon="11.150279665280687"><ele>61.0</ele><time>2026-04-03T15:53:11.999Z</time></trkpt><trkpt lat="53.74621343239711" lon="11.15012176683507"><ele>61.0</ele><time>2026-04-03T15:53:12.999Z</time></trkpt><trkpt lat="53.74627704027822" lon="11.150012297612372"><ele>61.0</ele><time>2026-04-03T15:53:13.999Z</time></trkpt><trkpt lat="53.74634627395086" lon="11.149876271207342"><ele>61.199999999999996</ele><time>2026-04-03T15:53:14.999Z</time></trkpt><trkpt lat="53.746412699743594" lon="11.149741238548204"><ele>61.39999999999999</ele><time>2026-04-03T15:53:15.999Z</time></trkpt><trkpt lat="53.746483550711666" lon="11.149606400193196"><ele>61.6</ele><time>2026-04-03T15:53:16.999Z</time></trkpt><trkpt lat="53.74654787553677" lon="11.149457154070094"><ele>61.8</ele><time>2026-04-03T15:53:17.999Z</time></trkpt><trkpt lat="53.74660593396478" lon="11.149323742423885"><ele>62.0</ele><time>2026-04-03T15:53:18.999Z</time></trkpt><trkpt lat="53.74666830387118" lon="11.14921083138531"><ele>62.00000000000001</ele><time>2026-04-03T15:53:19.999Z</time></trkpt><trkpt lat="53.746724305856986" lon="11.149112241811373"><ele>62.0</ele><time>2026-04-03T15:53:20.999Z</time></trkpt><trkpt lat="53.74677353238943" lon="11.14900980817949"><ele>62.0</ele><time>2026-04-03T15:53:21.999Z</time></trkpt><trkpt lat="53.74682277314461" lon="11.148900497250123"><ele>62.0</ele><time>2026-04-03T15:53:22.999Z</time></trkpt><trkpt lat="53.74689627261065" lon="11.148782049948784"><ele>62.00000000000001</ele><time>2026-04-03T15:53:24.999Z</time></trkpt><trkpt lat="53.746953775397074" lon="11.148665299644273"><ele>62.0</ele><time>2026-04-03T15:53:26.999Z</time></trkpt><trkpt lat="53.746994608057065" lon="11.148578569588299"><ele>62.0</ele><time>2026-04-03T15:53:27.999Z</time></trkpt><trkpt lat="53.74708859513842" lon="11.148529604784361"><ele>62.0</ele><time>2026-04-03T15:53:28.999Z</time></trkpt><trkpt lat="53.747147028076846" lon="11.148398002110113"><ele>62.0</ele><time>2026-04-03T15:53:29.999Z</time></trkpt><trkpt lat="53.747223463790846" lon="11.148291247184972"><ele>62.0</ele><time>2026-04-03T15:53:30.999Z</time></trkpt><trkpt lat="53.74730658596085" lon="11.1481469789824"><ele>62.0</ele><time>2026-04-03T15:53:31.999Z</time></trkpt><trkpt lat="53.747365263445644" lon="11.147959440790215"><ele>62.0</ele><time>2026-04-03T15:53:32.999Z</time></trkpt><trkpt lat="53.74741067078023" lon="11.1477321431266"><ele>62.0</ele><time>2026-04-03T15:53:33.999Z</time></trkpt><trkpt lat="53.74747144276273" lon="11.147498990258965"><ele>62.0</ele><time>2026-04-03T15:53:34.999Z</time></trkpt><trkpt lat="53.747549965220756" lon="11.147267986781934"><ele>61.66666666666667</ele><time>2026-04-03T15:53:35.999Z</time></trkpt><trkpt lat="53.74762944703792" lon="11.147019586725879"><ele>61.33333333333333</ele><time>2026-04-03T15:53:36.999Z</time></trkpt><trkpt lat="53.747703432888976" lon="11.146774441296232"><ele>61.0</ele><time>2026-04-03T15:53:37.999Z</time></trkpt><trkpt lat="53.7477683266776" lon="11.146516186328745"><ele>60.666666666666664</ele><time>2026-04-03T15:53:38.999Z</time></trkpt><trkpt lat="53.74784234866928" lon="11.146279313257654"><ele>60.33333333333333</ele><time>2026-04-03T15:53:39.999Z</time></trkpt><trkpt lat="53.74792054844075" lon="11.146050219665934"><ele>60.0</ele><time>2026-04-03T15:53:40.999Z</time></trkpt><trkpt lat="53.74800155716203" lon="11.145788201592639"><ele>59.66666666666667</ele><time>2026-04-03T15:53:41.999Z</time></trkpt><trkpt lat="53.74808324120736" lon="11.145554991043733"><ele>59.333333333333336</ele><time>2026-04-03T15:53:42.999Z</time></trkpt><trkpt lat="53.74816996534994" lon="11.145326524063373"><ele>59.0</ele><time>2026-04-03T15:53:43.999Z</time></trkpt><trkpt lat="53.74825396512106" lon="11.145084993843222"><ele>58.66666666666667</ele><time>2026-04-03T15:53:44.999Z</time></trkpt><trkpt lat="53.748363775718786" lon="11.14482672129845"><ele>58.33333333333333</ele><time>2026-04-03T15:53:45.999Z</time></trkpt><trkpt lat="53.74850071887639" lon="11.144582804087586"><ele>58.0</ele><time>2026-04-03T15:53:46.999Z</time></trkpt><trkpt lat="53.748638628067035" lon="11.144344509806674"><ele>57.666666666666664</ele><time>2026-04-03T15:53:47.999Z</time></trkpt><trkpt lat="53.74877052347085" lon="11.144135169885915"><ele>57.33333333333333</ele><time>2026-04-03T15:53:48.999Z</time></trkpt><trkpt lat="53.74890086871937" lon="11.14392528434135"><ele>57.0</ele><time>2026-04-03T15:53:49.999Z</time></trkpt><trkpt lat="53.74903687004582" lon="11.143708563675911"><ele>57.66666666666667</ele><time>2026-04-03T15:53:50.999Z</time></trkpt><trkpt lat="53.749187599342136" lon="11.143510369770105"><ele>58.333333333333336</ele><time>2026-04-03T15:53:51.999Z</time></trkpt><trkpt lat="53.749334353348644" lon="11.143313548058284"><ele>59.0</ele><time>2026-04-03T15:53:52.999Z</time></trkpt><trkpt lat="53.74947503885606" lon="11.14313703033281"><ele>59.0</ele><time>2026-04-03T15:53:53.999Z</time></trkpt><trkpt lat="53.74963527800928" lon="11.14297259483122"><ele>59.0</ele><time>2026-04-03T15:53:54.999Z</time></trkpt><trkpt lat="53.74979271921644" lon="11.142817763911703"><ele>59.0</ele><time>2026-04-03T15:53:55.999Z</time></trkpt><trkpt lat="53.749961651462186" lon="11.142650500268376"><ele>59.0</ele><time>2026-04-03T15:53:56.999Z</time></trkpt><trkpt lat="53.75013437428135" lon="11.14247939699398"><ele>59.0</ele><time>2026-04-03T15:53:57.999Z</time></trkpt><trkpt lat="53.750299683476555" lon="11.142307152379034"><ele>59.0</ele><time>2026-04-03T15:53:58.999Z</time></trkpt><trkpt lat="53.750456351195496" lon="11.142147770848174"><ele>58.333333333333336</ele><time>2026-04-03T15:53:59.999Z</time></trkpt><trkpt lat="53.750609983921414" lon="11.141991487790067"><ele>57.66666666666667</ele><time>2026-04-03T15:54:00.999Z</time></trkpt><trkpt lat="53.750764473191595" lon="11.141833643502904"><ele>57.0</ele><time>2026-04-03T15:54:01.999Z</time></trkpt><trkpt lat="53.75093676981384" lon="11.141655573435683"><ele>57.0</ele><time>2026-04-03T15:54:02.999Z</time></trkpt><trkpt lat="53.75109895796387" lon="11.141466615032181"><ele>57.0</ele><time>2026-04-03T15:54:03.999Z</time></trkpt><trkpt lat="53.75123627964993" lon="11.141301623915691"><ele>57.0</ele><time>2026-04-03T15:54:04.999Z</time></trkpt><trkpt lat="53.75135135339299" lon="11.14107932672493"><ele>57.0</ele><time>2026-04-03T15:54:05.999Z</time></trkpt><trkpt lat="53.751474537575604" lon="11.140856058010298"><ele>57.0</ele><time>2026-04-03T15:54:06.999Z</time></trkpt><trkpt lat="53.75159181514996" lon="11.14061578804166"><ele>57.0</ele><time>2026-04-03T15:54:07.999Z</time></trkpt><trkpt lat="53.75169772899366" lon="11.140375004586286"><ele>57.33333333333333</ele><time>2026-04-03T15:54:08.999Z</time></trkpt><trkpt lat="53.751818439365664" lon="11.140141795145759"><ele>57.666666666666664</ele><time>2026-04-03T15:54:09.999Z</time></trkpt><trkpt lat="53.75195327763508" lon="11.139918910965282"><ele>58.0</ele><time>2026-04-03T15:54:10.999Z</time></trkpt><trkpt lat="53.752087051807194" lon="11.139672270562386"><ele>58.666666666666664</ele><time>2026-04-03T15:54:11.999Z</time></trkpt><trkpt lat="53.75218192194376" lon="11.139463230936695"><ele>59.33333333333333</ele><time>2026-04-03T15:54:12.999Z</time></trkpt><trkpt lat="53.752301349478074" lon="11.139245918941539"><ele>60.0</ele><time>2026-04-03T15:54:13.999Z</time></trkpt><trkpt lat="53.75241372184021" lon="11.139067152277047"><ele>60.66666666666667</ele><time>2026-04-03T15:54:14.999Z</time></trkpt><trkpt lat="53.75253286307245" lon="11.138844522648537"><ele>61.333333333333336</ele><time>2026-04-03T15:54:15.999Z</time></trkpt><trkpt lat="53.752657886864995" lon="11.138610901202252"><ele>62.0</ele><time>2026-04-03T15:54:16.999Z</time></trkpt><trkpt lat="53.75279008550901" lon="11.138363872626842"><ele>62.333333333333336</ele><time>2026-04-03T15:54:17.999Z</time></trkpt><trkpt lat="53.752908455655366" lon="11.138141470393675"><ele>62.66666666666667</ele><time>2026-04-03T15:54:18.999Z</time></trkpt><trkpt lat="53.75302845967978" lon="11.137915546570172"><ele>63.0</ele><time>2026-04-03T15:54:19.999Z</time></trkpt><trkpt lat="53.75313547402747" lon="11.137689387505336"><ele>63.0</ele><time>2026-04-03T15:54:20.999Z</time></trkpt><trkpt lat="53.75325390866258" lon="11.137473922135884"><ele>63.0</ele><time>2026-04-03T15:54:21.999Z</time></trkpt><trkpt lat="53.75337836203912" lon="11.137260337973858"><ele>63.0</ele><time>2026-04-03T15:54:22.999Z</time></trkpt><trkpt lat="53.75349395648285" lon="11.137046061156118"><ele>63.33333333333333</ele><time>2026-04-03T15:54:23.999Z</time></trkpt><trkpt lat="53.75360560527757" lon="11.136838757476236"><ele>63.666666666666664</ele><time>2026-04-03T15:54:24.999Z</time></trkpt><trkpt lat="53.75372718874014" lon="11.136609450973886"><ele>64.0</ele><time>2026-04-03T15:54:25.999Z</time></trkpt><trkpt lat="53.75384602709467" lon="11.13638532212727"><ele>64.66666666666666</ele><time>2026-04-03T15:54:26.999Z</time></trkpt><trkpt lat="53.753975395170215" lon="11.136141333603728"><ele>65.33333333333333</ele><time>2026-04-03T15:54:27.999Z</time></trkpt><trkpt lat="53.75410507716162" lon="11.135897468213068"><ele>66.0</ele><time>2026-04-03T15:54:28.999Z</time></trkpt><trkpt lat="53.75421230746248" lon="11.135696340269778"><ele>66.0</ele><time>2026-04-03T15:54:29.999Z</time></trkpt><trkpt lat="53.75433059149453" lon="11.135474479006138"><ele>66.0</ele><time>2026-04-03T15:54:30.999Z</time></trkpt><trkpt lat="53.75444619897748" lon="11.135257638413554"><ele>66.0</ele><time>2026-04-03T15:54:31.999Z</time></trkpt><trkpt lat="53.75457224741187" lon="11.13501522819893"><ele>66.0</ele><time>2026-04-03T15:54:32.999Z</time></trkpt><trkpt lat="53.754685299542786" lon="11.134785394291862"><ele>66.0</ele><time>2026-04-03T15:54:33.999Z</time></trkpt><trkpt lat="53.754776739971405" lon="11.134529835247289"><ele>66.0</ele><time>2026-04-03T15:54:34.999Z</time></trkpt><trkpt lat="53.75489084954206" lon="11.134306796224148"><ele>66.0</ele><time>2026-04-03T15:54:35.999Z</time></trkpt><trkpt lat="53.75498957290327" lon="11.134047802269937"><ele>66.0</ele><time>2026-04-03T15:54:36.999Z</time></trkpt><trkpt lat="53.75506608501738" lon="11.133785197126159"><ele>66.0</ele><time>2026-04-03T15:54:37.999Z</time></trkpt><trkpt lat="53.755128468688916" lon="11.133511340508392"><ele>66.0</ele><time>2026-04-03T15:54:38.999Z</time></trkpt><trkpt lat="53.7551884260922" lon="11.133219904549167"><ele>66.0</ele><time>2026-04-03T15:54:39.999Z</time></trkpt><trkpt lat="53.755245247246044" lon="11.132929196739711"><ele>66.0</ele><time>2026-04-03T15:54:40.999Z</time></trkpt><trkpt lat="53.7553281629949" lon="11.13260881361359"><ele>65.66666666666667</ele><time>2026-04-03T15:54:41.999Z</time></trkpt><trkpt lat="53.7553989799278" lon="11.132340177840591"><ele>65.33333333333334</ele><time>2026-04-03T15:54:42.999Z</time></trkpt><trkpt lat="53.75547246755603" lon="11.132055837466268"><ele>65.0</ele><time>2026-04-03T15:54:43.999Z</time></trkpt><trkpt lat="53.755543063104845" lon="11.131782687681559"><ele>64.66666666666667</ele><time>2026-04-03T15:54:44.999Z</time></trkpt><trkpt lat="53.7556202998677" lon="11.131520162382563"><ele>64.33333333333333</ele><time>2026-04-03T15:54:45.999Z</time></trkpt><trkpt lat="53.75568662004762" lon="11.131235132803175"><ele>64.0</ele><time>2026-04-03T15:54:46.999Z</time></trkpt><trkpt lat="53.75575890284024" lon="11.13095568475641"><ele>64.0</ele><time>2026-04-03T15:54:47.999Z</time></trkpt><trkpt lat="53.75583799630041" lon="11.130655062897171"><ele>64.0</ele><time>2026-04-03T15:54:48.999Z</time></trkpt><trkpt lat="53.75592029123606" lon="11.13034713299826"><ele>64.0</ele><time>2026-04-03T15:54:49.999Z</time></trkpt><trkpt lat="53.75600178997424" lon="11.130032818580176"><ele>63.33333333333333</ele><time>2026-04-03T15:54:50.999Z</time></trkpt><trkpt lat="53.756066397971814" lon="11.12978364550842"><ele>62.66666666666667</ele><time>2026-04-03T15:54:51.999Z</time></trkpt><trkpt lat="53.756135211478245" lon="11.129518125395547"><ele>62.0</ele><time>2026-04-03T15:54:52.999Z</time></trkpt><trkpt lat="53.75621527960796" lon="11.129209050926034"><ele>62.66666666666667</ele><time>2026-04-03T15:54:53.999Z</time></trkpt><trkpt lat="53.75628619329884" lon="11.12893940738589"><ele>63.33333333333333</ele><time>2026-04-03T15:54:54.999Z</time></trkpt><trkpt lat="53.756362557572416" lon="11.128649960019894"><ele>64.0</ele><time>2026-04-03T15:54:55.999Z</time></trkpt><trkpt lat="53.75643757536163" lon="11.128365616345821"><ele>64.33333333333333</ele><time>2026-04-03T15:54:56.999Z</time></trkpt><trkpt lat="53.7565142531625" lon="11.12807497990609"><ele>64.66666666666667</ele><time>2026-04-03T15:54:57.999Z</time></trkpt><trkpt lat="53.75658943515782" lon="11.127787808286419"><ele>65.0</ele><time>2026-04-03T15:54:58.999Z</time></trkpt><trkpt lat="53.75665514806953" lon="11.127536134843819"><ele>65.33333333333334</ele><time>2026-04-03T15:54:59.999Z</time></trkpt><trkpt lat="53.756714812445075" lon="11.12726633632926"><ele>65.66666666666667</ele><time>2026-04-03T15:55:00.999Z</time></trkpt><trkpt lat="53.756779347996144" lon="11.126991858017686"><ele>66.0</ele><time>2026-04-03T15:55:01.999Z</time></trkpt><trkpt lat="53.756867257065586" lon="11.126723781501346"><ele>65.0</ele><time>2026-04-03T15:55:02.999Z</time></trkpt><trkpt lat="53.75693514181465" lon="11.126463791297999"><ele>64.0</ele><time>2026-04-03T15:55:03.999Z</time></trkpt><trkpt lat="53.75700709215605" lon="11.12618822770101"><ele>63.0</ele><time>2026-04-03T15:55:04.999Z</time></trkpt><trkpt lat="53.75707901616064" lon="11.125912589480476"><ele>63.0</ele><time>2026-04-03T15:55:05.999Z</time></trkpt><trkpt lat="53.757159051872776" lon="11.125612489052182"><ele>63.0</ele><time>2026-04-03T15:55:06.999Z</time></trkpt><trkpt lat="53.757227439119085" lon="11.125351127682729"><ele>63.0</ele><time>2026-04-03T15:55:07.999Z</time></trkpt><trkpt lat="53.75730249328468" lon="11.125060880281804"><ele>62.66666666666667</ele><time>2026-04-03T15:55:08.999Z</time></trkpt><trkpt lat="53.75737430740047" lon="11.124783162579366"><ele>62.333333333333336</ele><time>2026-04-03T15:55:09.999Z</time></trkpt><trkpt lat="53.75744605098641" lon="11.124505717414385"><ele>62.0</ele><time>2026-04-03T15:55:10.999Z</time></trkpt><trkpt lat="53.75751902320534" lon="11.12422352112014"><ele>62.0</ele><time>2026-04-03T15:55:11.999Z</time></trkpt><trkpt lat="53.75759749657327" lon="11.123920362317993"><ele>62.0</ele><time>2026-04-03T15:55:12.999Z</time></trkpt><trkpt lat="53.7576637444923" lon="11.123665020869893"><ele>62.0</ele><time>2026-04-03T15:55:13.999Z</time></trkpt><trkpt lat="53.75773528147376" lon="11.123397408407225"><ele>62.0</ele><time>2026-04-03T15:55:14.999Z</time></trkpt><trkpt lat="53.757802502332055" lon="11.123146665192241"><ele>62.0</ele><time>2026-04-03T15:55:15.999Z</time></trkpt><trkpt lat="53.757873983419785" lon="11.12287200836171"><ele>62.0</ele><time>2026-04-03T15:55:16.999Z</time></trkpt><trkpt lat="53.757947998393995" lon="11.12258479671301"><ele>62.0</ele><time>2026-04-03T15:55:17.999Z</time></trkpt><trkpt lat="53.75801835980838" lon="11.122311762450945"><ele>62.0</ele><time>2026-04-03T15:55:18.999Z</time></trkpt><trkpt lat="53.75808256736842" lon="11.122068958268875"><ele>62.0</ele><time>2026-04-03T15:55:19.999Z</time></trkpt><trkpt lat="53.758153010561735" lon="11.121805275399874"><ele>61.66666666666667</ele><time>2026-04-03T15:55:20.999Z</time></trkpt><trkpt lat="53.75822547008498" lon="11.121535020978394"><ele>61.33333333333333</ele><time>2026-04-03T15:55:21.999Z</time></trkpt><trkpt lat="53.75828867749114" lon="11.121301859136578"><ele>61.0</ele><time>2026-04-03T15:55:22.999Z</time></trkpt><trkpt lat="53.758350280729324" lon="11.121074614668737"><ele>61.0</ele><time>2026-04-03T15:55:23.999Z</time></trkpt><trkpt lat="53.758410915521914" lon="11.120850942683703"><ele>61.0</ele><time>2026-04-03T15:55:24.999Z</time></trkpt><trkpt lat="53.758466474362876" lon="11.12064849610333"><ele>61.0</ele><time>2026-04-03T15:55:25.999Z</time></trkpt><trkpt lat="53.75853616443551" lon="11.120397437949457"><ele>61.0</ele><time>2026-04-03T15:55:26.999Z</time></trkpt><trkpt lat="53.75861182054557" lon="11.12013611947345"><ele>60.0</ele><time>2026-04-03T15:55:27.999Z</time></trkpt><trkpt lat="53.7586895114223" lon="11.119867772752428"><ele>59.0</ele><time>2026-04-03T15:55:28.999Z</time></trkpt><trkpt lat="53.75877270336213" lon="11.119576127691195"><ele>58.0</ele><time>2026-04-03T15:55:29.999Z</time></trkpt><trkpt lat="53.75885365755846" lon="11.119287729460597"><ele>58.0</ele><time>2026-04-03T15:55:30.999Z</time></trkpt><trkpt lat="53.758926702394035" lon="11.11902711774606"><ele>58.0</ele><time>2026-04-03T15:55:31.999Z</time></trkpt><trkpt lat="53.75900072237352" lon="11.11876302700429"><ele>58.0</ele><time>2026-04-03T15:55:32.999Z</time></trkpt><trkpt lat="53.75908369325031" lon="11.118474309563444"><ele>58.0</ele><time>2026-04-03T15:55:33.999Z</time></trkpt><trkpt lat="53.75915180386353" lon="11.11823903707299"><ele>58.0</ele><time>2026-04-03T15:55:34.999Z</time></trkpt><trkpt lat="53.759229492884046" lon="11.117960938538133"><ele>58.0</ele><time>2026-04-03T15:55:35.999Z</time></trkpt><trkpt lat="53.759308349098504" lon="11.117675636136001"><ele>56.666666666666664</ele><time>2026-04-03T15:55:36.999Z</time></trkpt><trkpt lat="53.759381231899006" lon="11.117411945437427"><ele>55.33333333333333</ele><time>2026-04-03T15:55:37.999Z</time></trkpt><trkpt lat="53.75945940509096" lon="11.117129114314993"><ele>54.0</ele><time>2026-04-03T15:55:38.999Z</time></trkpt><trkpt lat="53.759540197014225" lon="11.116837609598173"><ele>54.33333333333333</ele><time>2026-04-03T15:55:39.999Z</time></trkpt><trkpt lat="53.75961622229885" lon="11.116563635056437"><ele>54.666666666666664</ele><time>2026-04-03T15:55:40.999Z</time></trkpt><trkpt lat="53.75969547607975" lon="11.116280784909552"><ele>55.0</ele><time>2026-04-03T15:55:41.999Z</time></trkpt><trkpt lat="53.75977108517453" lon="11.116015484757366"><ele>55.0</ele><time>2026-04-03T15:55:42.999Z</time></trkpt><trkpt lat="53.759854112900705" lon="11.115724153785266"><ele>55.0</ele><time>2026-04-03T15:55:43.999Z</time></trkpt><trkpt lat="53.75993293199887" lon="11.115447590371199"><ele>55.0</ele><time>2026-04-03T15:55:44.999Z</time></trkpt><trkpt lat="53.76001216390995" lon="11.115169578193989"><ele>55.0</ele><time>2026-04-03T15:55:45.999Z</time></trkpt><trkpt lat="53.76008081862248" lon="11.114933539073233"><ele>55.0</ele><time>2026-04-03T15:55:46.999Z</time></trkpt><trkpt lat="53.76016206554332" lon="11.114654780419883"><ele>55.0</ele><time>2026-04-03T15:55:47.999Z</time></trkpt><trkpt lat="53.760243537263996" lon="11.114378795889223"><ele>54.75</ele><time>2026-04-03T15:55:48.999Z</time></trkpt><trkpt lat="53.760309282397195" lon="11.114159546119364"><ele>54.5</ele><time>2026-04-03T15:55:49.999Z</time></trkpt><trkpt lat="53.760387029092485" lon="11.113911089380546"><ele>54.25</ele><time>2026-04-03T15:55:50.999Z</time></trkpt><trkpt lat="53.760451997573796" lon="11.113707172502838"><ele>54.0</ele><time>2026-04-03T15:55:51.999Z</time></trkpt><trkpt lat="53.76050842457638" lon="11.113526346876721"><ele>53.800000000000004</ele><time>2026-04-03T15:55:52.999Z</time></trkpt><trkpt lat="53.760554353554014" lon="11.113376979610369"><ele>53.60000000000001</ele><time>2026-04-03T15:55:53.999Z</time></trkpt><trkpt lat="53.76060105144616" lon="11.113181958436883"><ele>53.4</ele><time>2026-04-03T15:55:54.999Z</time></trkpt><trkpt lat="53.76065294716279" lon="11.11302866943903"><ele>53.2</ele><time>2026-04-03T15:55:55.999Z</time></trkpt><trkpt lat="53.76070353466226" lon="11.112881294261673"><ele>53.0</ele><time>2026-04-03T15:55:56.999Z</time></trkpt><trkpt lat="53.76075818987918" lon="11.112670654886502"><ele>53.0</ele><time>2026-04-03T15:55:57.999Z</time></trkpt><trkpt lat="53.76077794827952" lon="11.112433804351094"><ele>53.0</ele><time>2026-04-03T15:55:58.999Z</time></trkpt><trkpt lat="53.7607938572962" lon="11.1122272795908"><ele>53.0</ele><time>2026-04-03T15:55:59.999Z</time></trkpt><trkpt lat="53.760812519676186" lon="11.112002121602771"><ele>53.0</ele><time>2026-04-03T15:56:00.999Z</time></trkpt><trkpt lat="53.760810715283114" lon="11.11179331316365"><ele>53.0</ele><time>2026-04-03T15:56:01.999Z</time></trkpt><trkpt lat="53.76083228982828" lon="11.111566598362998"><ele>53.0</ele><time>2026-04-03T15:56:02.999Z</time></trkpt><trkpt lat="53.760832742980696" lon="11.11134462708752"><ele>53.0</ele><time>2026-04-03T15:56:03.999Z</time></trkpt><trkpt lat="53.76084064862724" lon="11.111144305195621"><ele>53.0</ele><time>2026-04-03T15:56:04.999Z</time></trkpt><trkpt lat="53.760865361729074" lon="11.110902400088982"><ele>53.333333333333336</ele><time>2026-04-03T15:56:05.999Z</time></trkpt><trkpt lat="53.760860969310556" lon="11.110643285023157"><ele>53.66666666666667</ele><time>2026-04-03T15:56:06.999Z</time></trkpt><trkpt lat="53.76087960204606" lon="11.11041709020428"><ele>54.0</ele><time>2026-04-03T15:56:07.999Z</time></trkpt><trkpt lat="53.76091766572863" lon="11.110147267991502"><ele>54.0</ele><time>2026-04-03T15:56:08.999Z</time></trkpt><trkpt lat="53.76090230987523" lon="11.109867778259071"><ele>54.0</ele><time>2026-04-03T15:56:09.999Z</time></trkpt><trkpt lat="53.760908892042494" lon="11.109604245399252"><ele>54.0</ele><time>2026-04-03T15:56:10.999Z</time></trkpt><trkpt lat="53.76091651679345" lon="11.109329142844686"><ele>53.33333333333333</ele><time>2026-04-03T15:56:11.999Z</time></trkpt><trkpt lat="53.76092874815586" lon="11.109067473751146"><ele>52.666666666666664</ele><time>2026-04-03T15:56:12.999Z</time></trkpt><trkpt lat="53.76093361799233" lon="11.108788364357801"><ele>52.0</ele><time>2026-04-03T15:56:13.999Z</time></trkpt><trkpt lat="53.76093827473176" lon="11.108490484975793"><ele>52.0</ele><time>2026-04-03T15:56:14.999Z</time></trkpt><trkpt lat="53.7609431339758" lon="11.108193824531396"><ele>52.0</ele><time>2026-04-03T15:56:15.999Z</time></trkpt><trkpt lat="53.76095154462618" lon="11.107880727018784"><ele>52.0</ele><time>2026-04-03T15:56:16.999Z</time></trkpt><trkpt lat="53.76097405104268" lon="11.107583175889909"><ele>52.666666666666664</ele><time>2026-04-03T15:56:17.999Z</time></trkpt><trkpt lat="53.76100301122947" lon="11.107284403376816"><ele>53.33333333333333</ele><time>2026-04-03T15:56:18.998Z</time></trkpt><trkpt lat="53.76102652615115" lon="11.106997580815259"><ele>54.0</ele><time>2026-04-03T15:56:19.998Z</time></trkpt><trkpt lat="53.76104863993033" lon="11.10670492060841"><ele>52.33333333333333</ele><time>2026-04-03T15:56:20.998Z</time></trkpt><trkpt lat="53.761073130205496" lon="11.106414191495235"><ele>50.666666666666664</ele><time>2026-04-03T15:56:21.998Z</time></trkpt><trkpt lat="53.761097924478136" lon="11.106104387527415"><ele>49.0</ele><time>2026-04-03T15:56:22.998Z</time></trkpt><trkpt lat="53.76117383098272" lon="11.10581085994593"><ele>49.33333333333333</ele><time>2026-04-03T15:56:23.998Z</time></trkpt><trkpt lat="53.7612485839496" lon="11.1055431686351"><ele>49.66666666666667</ele><time>2026-04-03T15:56:24.998Z</time></trkpt><trkpt lat="53.7613301596308" lon="11.105272649849551"><ele>50.0</ele><time>2026-04-03T15:56:25.998Z</time></trkpt><trkpt lat="53.76141397060466" lon="11.10502711961484"><ele>50.333333333333336</ele><time>2026-04-03T15:56:26.998Z</time></trkpt><trkpt lat="53.76150109692615" lon="11.104794985493267"><ele>50.66666666666667</ele><time>2026-04-03T15:56:27.998Z</time></trkpt><trkpt lat="53.7616017612995" lon="11.104538606546804"><ele>51.0</ele><time>2026-04-03T15:56:28.998Z</time></trkpt><trkpt lat="53.76171056414709" lon="11.104273695853113"><ele>51.0</ele><time>2026-04-03T15:56:29.998Z</time></trkpt><trkpt lat="53.76181855529871" lon="11.104009927664558"><ele>51.0</ele><time>2026-04-03T15:56:30.998Z</time></trkpt><trkpt lat="53.761926667957695" lon="11.10376533301597"><ele>51.0</ele><time>2026-04-03T15:56:31.998Z</time></trkpt><trkpt lat="53.76204209813695" lon="11.10353283829092"><ele>51.0</ele><time>2026-04-03T15:56:32.998Z</time></trkpt><trkpt lat="53.76215396290654" lon="11.103312502726116"><ele>51.0</ele><time>2026-04-03T15:56:33.998Z</time></trkpt><trkpt lat="53.762272461405104" lon="11.103082058558623"><ele>51.0</ele><time>2026-04-03T15:56:34.998Z</time></trkpt><trkpt lat="53.76239790971172" lon="11.102846011319379"><ele>51.33333333333333</ele><time>2026-04-03T15:56:35.998Z</time></trkpt><trkpt lat="53.76250425795966" lon="11.102641145297472"><ele>51.666666666666664</ele><time>2026-04-03T15:56:36.998Z</time></trkpt><trkpt lat="53.76262007984233" lon="11.102416854510059"><ele>52.0</ele><time>2026-04-03T15:56:37.998Z</time></trkpt><trkpt lat="53.762724023465815" lon="11.102215766054025"><ele>51.666666666666664</ele><time>2026-04-03T15:56:38.998Z</time></trkpt><trkpt lat="53.76286620043224" lon="11.101945960101204"><ele>51.33333333333333</ele><time>2026-04-03T15:56:39.998Z</time></trkpt><trkpt lat="53.76299415470674" lon="11.101703276030003"><ele>51.0</ele><time>2026-04-03T15:56:40.998Z</time></trkpt><trkpt lat="53.763103083691185" lon="11.101473241062722"><ele>51.0</ele><time>2026-04-03T15:56:41.998Z</time></trkpt><trkpt lat="53.763212498664394" lon="11.101230606358763"><ele>51.0</ele><time>2026-04-03T15:56:42.998Z</time></trkpt><trkpt lat="53.76331206411375" lon="11.100974865243701"><ele>51.0</ele><time>2026-04-03T15:56:43.998Z</time></trkpt><trkpt lat="53.7634027605692" lon="11.100710440377386"><ele>51.0</ele><time>2026-04-03T15:56:44.998Z</time></trkpt><trkpt lat="53.76349031519421" lon="11.100434397931775"><ele>51.0</ele><time>2026-04-03T15:56:45.998Z</time></trkpt><trkpt lat="53.763572078720586" lon="11.10014050989221"><ele>51.0</ele><time>2026-04-03T15:56:46.998Z</time></trkpt><trkpt lat="53.76363872589764" lon="11.099850541461068"><ele>51.0</ele><time>2026-04-03T15:56:47.998Z</time></trkpt><trkpt lat="53.76369887802763" lon="11.099564524365954"><ele>51.0</ele><time>2026-04-03T15:56:48.998Z</time></trkpt><trkpt lat="53.763745212214246" lon="11.099274372726436"><ele>51.0</ele><time>2026-04-03T15:56:49.998Z</time></trkpt><trkpt lat="53.76378332164283" lon="11.09905766163318"><ele>51.199999999999996</ele><time>2026-04-03T15:56:50.998Z</time></trkpt><trkpt lat="53.76380009757325" lon="11.0988723879767"><ele>51.4</ele><time>2026-04-03T15:56:51.998Z</time></trkpt><trkpt lat="53.76382873637855" lon="11.09875546368221"><ele>51.6</ele><time>2026-04-03T15:56:52.998Z</time></trkpt><trkpt lat="53.76385522666826" lon="11.098561465407158"><ele>51.8</ele><time>2026-04-03T15:56:54.998Z</time></trkpt><trkpt lat="53.76391660386573" lon="11.09840329162625"><ele>52.0</ele><time>2026-04-03T15:56:57.998Z</time></trkpt><trkpt lat="53.76395077558969" lon="11.098292751016741"><ele>51.83333333333333</ele><time>2026-04-03T15:56:59.998Z</time></trkpt><trkpt lat="53.76395861129678" lon="11.098154238611121"><ele>51.666666666666664</ele><time>2026-04-03T15:57:01.998Z</time></trkpt><trkpt lat="53.7640014663959" lon="11.098027836884649"><ele>51.5</ele><time>2026-04-03T15:57:03.998Z</time></trkpt><trkpt lat="53.764084062261595" lon="11.09800001589172"><ele>51.33333333333333</ele><time>2026-04-03T15:57:05.998Z</time></trkpt><trkpt lat="53.7641737032499" lon="11.097990612898192"><ele>51.166666666666664</ele><time>2026-04-03T15:57:08.998Z</time></trkpt><trkpt lat="53.76422649374152" lon="11.097924117678845"><ele>51.0</ele><time>2026-04-03T15:57:11.998Z</time></trkpt><trkpt lat="53.76428304696645" lon="11.097874738500131"><ele>51.0</ele><time>2026-04-03T15:57:14.998Z</time></trkpt><trkpt lat="53.7643490539816" lon="11.09786550225634"><ele>51.0</ele><time>2026-04-03T15:57:28Z</time></trkpt><trkpt lat="53.76440703461194" lon="11.097934017711163"><ele>51.0</ele><time>2026-04-03T15:57:31Z</time></trkpt><trkpt lat="53.76450595080907" lon="11.097904556924172"><ele>51.0</ele><time>2026-04-03T15:57:34Z</time></trkpt><trkpt lat="53.764558427336965" lon="11.097670152524536"><ele>51.0</ele><time>2026-04-03T15:57:36Z</time></trkpt><trkpt lat="53.7645602989335" lon="11.097907942035562"><ele>50.0</ele><time>2026-04-03T15:57:47Z</time></trkpt><trkpt lat="53.76450486628974" lon="11.097855865335777"><ele>50.0</ele><time>2026-04-03T15:58:41Z</time></trkpt></trkseg></trk></gpx>